createdAt,value
2018-04-19T00:08:28.453Z,86.24
2018-04-19T00:10:55.990Z,85.72
2018-04-19T00:13:23.567Z,86.01
2018-04-19T00:15:51.166Z,86.46
2018-04-19T00:18:18.831Z,86.57
2018-04-19T00:20:46.453Z,86.94
2018-04-19T00:23:14.021Z,87.07
2018-04-19T00:25:41.571Z,87.93
2018-04-19T00:28:09.129Z,87.78
2018-04-19T00:30:36.754Z,87.95
2018-04-19T00:33:04.354Z,88.33
2018-04-19T00:35:31.940Z,87.94
2018-04-19T00:37:59.480Z,88.12
2018-04-19T00:40:27.049Z,88.00
2018-04-19T00:42:54.634Z,88.54
2018-04-19T00:45:22.221Z,88.23
2018-04-19T00:47:49.777Z,87.81
2018-04-19T00:50:17.374Z,87.90
2018-04-19T00:52:56.720Z,88.27
2018-04-19T00:55:24.296Z,88.74
2018-04-19T00:57:52.184Z,88.49
2018-04-19T01:00:19.738Z,88.57
2018-04-19T01:02:47.288Z,88.63
2018-04-19T01:05:14.892Z,88.74
2018-04-19T01:07:42.473Z,88.81
2018-04-19T01:10:10.038Z,88.95
2018-04-19T01:12:37.636Z,88.41
2018-04-19T01:15:05.210Z,88.78
2018-04-19T01:17:32.777Z,88.22
2018-04-19T01:20:00.351Z,88.08
2018-04-19T01:22:27.901Z,87.87
2018-04-19T01:24:55.473Z,87.72
2018-04-19T01:27:23.053Z,87.39
2018-04-19T01:29:50.669Z,86.95
2018-04-19T01:32:18.226Z,85.91
2018-04-19T01:34:45.778Z,86.70
2018-04-19T01:37:13.365Z,87.08
2018-04-19T01:39:40.934Z,86.97
2018-04-19T01:42:08.531Z,86.40
2018-04-19T01:44:36.087Z,86.82
2018-04-19T01:47:03.701Z,86.91
2018-04-19T01:49:31.265Z,87.15
2018-04-19T01:51:58.815Z,86.06
2018-04-19T01:54:26.426Z,85.27
2018-04-19T01:56:54.438Z,85.54
2018-04-19T01:59:22.018Z,85.41
2018-04-19T02:02:06.393Z,85.69
2018-04-19T02:04:34.004Z,85.01
2018-04-19T02:07:01.576Z,85.18
2018-04-19T02:09:29.144Z,85.59
2018-04-19T02:11:56.746Z,86.34
2018-04-19T02:14:24.381Z,87.07
2018-04-19T02:16:51.981Z,87.35
2018-04-19T02:19:19.536Z,87.68
2018-04-19T02:21:47.113Z,87.37
2018-04-19T02:24:14.683Z,86.89
2018-04-19T02:26:42.275Z,86.97
2018-04-19T02:29:09.827Z,87.12
2018-04-19T02:31:37.401Z,87.67
2018-04-19T02:34:04.968Z,88.12
2018-04-19T02:36:32.689Z,88.09
2018-04-19T02:39:00.283Z,88.23
2018-04-19T02:41:27.846Z,88.37
2018-04-19T02:43:55.448Z,88.20
2018-04-19T02:46:23.004Z,88.41
2018-04-19T02:48:50.571Z,88.10
2018-04-19T02:51:18.152Z,87.77
2018-04-19T02:53:45.736Z,87.86
2018-04-19T02:56:13.316Z,87.45
2018-04-19T02:58:40.897Z,87.43
2018-04-19T03:01:08.493Z,87.73
2018-04-19T03:03:36.041Z,87.67
2018-04-19T03:06:03.628Z,87.70
2018-04-19T03:08:31.227Z,88.05
2018-04-19T03:10:58.922Z,88.32
2018-04-19T03:13:26.511Z,88.39
2018-04-19T03:15:54.365Z,88.47
2018-04-19T03:18:21.936Z,88.41
2018-04-19T03:20:49.518Z,88.11
2018-04-19T03:23:17.941Z,88.12
2018-04-19T03:25:45.537Z,88.49
2018-04-19T03:28:13.122Z,88.42
2018-04-19T03:30:40.704Z,88.59
2018-04-19T03:33:08.260Z,88.92
2018-04-19T03:35:35.795Z,89.05
2018-04-19T03:38:03.386Z,89.17
2018-04-19T03:40:30.962Z,89.18
2018-04-19T03:42:58.692Z,89.33
2018-04-19T03:45:26.251Z,89.45
2018-04-19T03:47:53.885Z,89.53
2018-04-19T03:50:21.445Z,89.68
2018-04-19T03:52:49.039Z,90.00
2018-04-19T03:55:16.627Z,90.12
2018-04-19T03:57:44.289Z,90.44
2018-04-19T04:00:11.854Z,90.40
2018-04-19T04:02:39.433Z,90.69
2018-04-19T04:05:06.983Z,90.66
2018-04-19T04:07:34.594Z,90.90
2018-04-19T04:10:02.221Z,91.03
2018-04-19T04:12:29.784Z,91.15
2018-04-19T04:14:57.352Z,91.60
2018-04-19T04:17:36.603Z,91.83
2018-04-19T04:23:27.213Z,91.99
2018-04-19T04:25:54.810Z,92.22
2018-04-19T04:28:22.382Z,91.87
2018-04-19T04:30:49.937Z,92.27
2018-04-19T04:33:17.619Z,92.15
2018-04-19T04:35:45.184Z,92.27
2018-04-19T04:38:12.792Z,92.33
2018-04-19T04:40:40.361Z,92.38
2018-04-19T04:43:07.899Z,91.93
2018-04-19T04:45:35.503Z,91.81
2018-04-19T04:48:03.065Z,91.76
2018-04-19T04:50:30.679Z,91.98
2018-04-19T04:52:58.251Z,91.77
2018-04-19T04:55:25.835Z,91.56
2018-04-19T04:57:53.441Z,91.49
2018-04-19T05:00:21.066Z,90.94
2018-04-19T05:02:49.616Z,90.65
2018-04-19T05:05:17.268Z,90.64
2018-04-19T05:07:44.833Z,90.83
2018-04-19T05:10:12.406Z,90.92
2018-04-19T05:12:40.006Z,90.74
2018-04-19T05:15:07.616Z,90.76
2018-04-19T05:17:35.277Z,90.82
2018-04-19T05:20:02.945Z,90.71
2018-04-19T05:22:30.532Z,90.72
2018-04-19T05:24:58.083Z,89.69
2018-04-19T05:27:25.646Z,89.51
2018-04-19T05:29:53.206Z,89.99
2018-04-19T05:32:20.780Z,89.07
2018-04-19T05:34:48.363Z,88.55
2018-04-19T05:37:15.978Z,87.71
2018-04-19T05:39:43.532Z,87.51
2018-04-19T05:42:11.134Z,87.54
2018-04-19T05:44:38.698Z,88.02
2018-04-19T05:47:06.256Z,88.47
2018-04-19T05:49:33.809Z,87.24
2018-04-19T05:52:01.392Z,85.77
2018-04-19T05:54:28.950Z,83.51
2018-04-19T05:56:56.525Z,80.08
2018-04-19T05:59:24.083Z,77.59
2018-04-19T06:01:51.690Z,74.38
2018-04-19T06:04:19.317Z,71.40
2018-04-19T06:06:46.870Z,67.86
2018-04-19T06:09:14.463Z,66.01
2018-04-19T06:11:42.046Z,65.22
2018-04-19T06:14:09.614Z,63.49
2018-04-19T06:16:37.170Z,62.06
2018-04-19T06:19:04.788Z,61.62
2018-04-19T06:21:32.347Z,61.11
2018-04-19T06:23:59.914Z,61.29
2018-04-19T06:26:27.474Z,60.50
2018-04-19T06:28:55.063Z,58.08
2018-04-19T06:31:22.606Z,57.88
2018-04-19T06:33:50.174Z,57.59
2018-04-19T06:36:17.733Z,55.44
2018-04-19T06:38:45.289Z,55.91
2018-04-19T06:41:12.846Z,54.77
2018-04-19T06:43:40.505Z,54.84
2018-04-19T06:46:08.060Z,55.13
2018-04-19T06:48:35.639Z,55.67
2018-04-19T06:51:03.181Z,55.76
2018-04-19T06:53:30.727Z,56.54
2018-04-19T06:55:58.314Z,57.12
2018-04-19T06:58:25.849Z,55.89
2018-04-19T07:00:53.401Z,55.37
2018-04-19T07:03:20.984Z,55.85
2018-04-19T07:05:48.558Z,56.15
2018-04-19T07:08:16.145Z,56.44
2018-04-19T07:10:43.705Z,59.18
2018-04-19T07:13:11.263Z,57.27
2018-04-19T07:15:38.805Z,57.35
2018-04-19T07:18:06.667Z,56.78
2018-04-19T07:20:34.220Z,55.59
2018-04-19T07:23:01.830Z,58.18
2018-04-19T07:25:29.368Z,54.81
2018-04-19T07:27:56.944Z,53.82
2018-04-19T07:30:24.528Z,53.21
2018-04-19T07:32:52.089Z,53.24
2018-04-19T07:35:19.716Z,53.14
2018-04-19T07:37:47.278Z,49.70
2018-04-19T07:40:14.839Z,48.54
2018-04-19T07:42:42.386Z,48.93
2018-04-19T07:45:09.958Z,49.12
2018-04-19T07:47:37.518Z,49.30
2018-04-19T07:50:05.072Z,48.97
2018-04-19T07:52:32.628Z,48.39
2018-04-19T07:55:00.179Z,50.38
2018-04-19T07:57:27.760Z,50.36
2018-04-19T07:59:55.326Z,50.78
2018-04-19T08:02:22.887Z,48.31
2018-04-19T08:04:50.456Z,47.21
2018-04-19T08:07:18.166Z,48.45
2018-04-19T08:09:45.746Z,47.18
2018-04-19T08:12:13.309Z,46.06
2018-04-19T08:14:40.897Z,46.11
2018-04-19T08:17:08.470Z,45.16
2018-04-19T08:19:36.155Z,45.81
2018-04-19T08:22:03.717Z,45.76
2018-04-19T08:24:31.304Z,46.50
2018-04-19T08:26:58.862Z,46.80
2018-04-19T08:29:26.802Z,49.26
2018-04-19T08:31:54.386Z,47.10
2018-04-19T08:34:21.923Z,48.55
2018-04-19T08:36:49.544Z,48.30
2018-04-19T08:39:17.104Z,50.43
2018-04-19T08:41:44.661Z,50.94
2018-04-19T08:44:12.233Z,52.85
2018-04-19T08:46:39.786Z,48.07
2018-04-19T08:49:07.352Z,47.79
2018-04-19T08:51:34.906Z,48.31
2018-04-19T08:54:02.496Z,48.88
2018-04-19T08:56:30.060Z,48.04
2018-04-19T08:58:57.617Z,50.17
2018-04-19T09:01:25.173Z,48.22
2018-04-19T09:03:52.757Z,47.55
2018-04-19T09:06:20.310Z,46.76
2018-04-19T09:08:47.882Z,48.03
2018-04-19T09:11:15.441Z,47.30
2018-04-19T09:13:43.004Z,47.74
2018-04-19T09:16:10.549Z,48.29
2018-04-19T09:18:38.130Z,46.88
2018-04-19T09:21:05.703Z,48.96
2018-04-19T09:23:33.272Z,47.56
2018-04-19T09:26:00.829Z,48.07
2018-04-19T09:28:28.419Z,47.05
2018-04-19T09:30:55.976Z,47.27
2018-04-19T09:33:23.648Z,46.24
2018-04-19T09:35:51.230Z,47.73
2018-04-19T09:38:18.811Z,46.79
2018-04-19T09:40:46.376Z,48.02
2018-04-19T09:43:13.932Z,46.98
2018-04-19T09:45:41.493Z,48.20
2018-04-19T09:48:09.053Z,47.71
2018-04-19T09:50:36.665Z,47.35
2018-04-19T09:53:04.299Z,48.09
2018-04-19T09:55:31.887Z,46.82
2018-04-19T09:58:10.355Z,47.35
2018-04-19T10:00:43.563Z,46.62
2018-04-19T10:03:16.683Z,45.84
2018-04-19T10:05:48.059Z,45.56
2018-04-19T10:08:15.615Z,46.21
2018-04-19T10:10:43.154Z,44.71
2018-04-19T10:13:10.709Z,48.36
2018-04-19T10:15:38.323Z,45.01
2018-04-19T10:18:05.885Z,43.46
2018-04-19T10:20:33.451Z,45.78
2018-04-19T10:23:01.041Z,44.70
2018-04-19T10:25:28.625Z,45.66
2018-04-19T10:27:56.205Z,45.33
2018-04-19T10:30:23.776Z,45.11
2018-04-19T10:32:51.318Z,45.54
2018-04-19T10:35:18.874Z,44.64
2018-04-19T10:37:46.433Z,45.32
2018-04-19T10:40:13.981Z,43.69
2018-04-19T10:42:41.553Z,44.16
2018-04-19T10:45:09.144Z,42.18
2018-04-19T10:47:36.720Z,43.74
2018-04-19T10:50:04.331Z,44.12
2018-04-19T10:52:31.881Z,43.00
2018-04-19T10:54:59.448Z,46.01
2018-04-19T10:57:27.005Z,42.34
2018-04-19T10:59:54.546Z,42.69
2018-04-19T11:02:22.127Z,41.27
2018-04-19T11:04:49.676Z,40.55
2018-04-19T11:07:17.245Z,40.42
2018-04-19T11:09:44.808Z,42.66
2018-04-19T11:12:12.361Z,40.60
2018-04-19T11:14:39.924Z,39.45
2018-04-19T11:17:07.484Z,39.80
2018-04-19T11:19:35.080Z,42.51
2018-04-19T11:22:02.642Z,41.16
2018-04-19T11:24:30.197Z,40.88
2018-04-19T11:26:57.752Z,40.40
2018-04-19T11:29:25.366Z,38.64
2018-04-19T11:31:52.918Z,37.35
2018-04-19T11:34:20.513Z,38.00
2018-04-19T11:36:48.057Z,37.64
2018-04-19T11:39:15.615Z,36.75
2018-04-19T11:41:43.178Z,36.98
2018-04-19T11:44:10.776Z,37.57
2018-04-19T11:46:38.343Z,36.75
2018-04-19T11:49:05.915Z,33.12
2018-04-19T11:51:33.479Z,34.13
2018-04-19T11:54:01.032Z,35.67
2018-04-19T11:56:28.603Z,34.30
2018-04-19T11:58:56.164Z,33.21
2018-04-19T12:01:23.721Z,34.81
2018-04-19T12:03:51.277Z,33.98
2018-04-19T12:06:18.805Z,32.29
2018-04-19T12:08:46.361Z,32.96
2018-04-19T12:11:13.921Z,33.04
2018-04-19T12:13:41.480Z,36.22
2018-04-19T12:16:09.033Z,35.28
2018-04-19T12:18:36.578Z,34.44
2018-04-19T12:21:04.143Z,32.85
2018-04-19T12:23:31.686Z,32.58
2018-04-19T12:25:59.252Z,34.34
2018-04-19T12:28:26.841Z,33.27
2018-04-19T12:30:54.406Z,34.01
2018-04-19T12:33:21.985Z,33.88
2018-04-19T12:35:49.579Z,33.52
2018-04-19T12:38:17.145Z,33.48
2018-04-19T12:40:44.723Z,36.89
2018-04-19T12:43:12.284Z,35.70
2018-04-19T12:45:39.821Z,31.36
2018-04-19T12:48:07.421Z,31.11
2018-04-19T12:50:34.959Z,31.14
2018-04-19T12:53:02.521Z,31.01
2018-04-19T12:55:30.061Z,34.08
2018-04-19T12:57:57.624Z,32.24
2018-04-19T13:00:25.188Z,32.24
2018-04-19T13:02:52.771Z,32.67
2018-04-19T13:05:20.342Z,31.88
2018-04-19T13:07:47.887Z,31.77
2018-04-19T13:10:15.447Z,32.84
2018-04-19T13:12:43.012Z,34.37
2018-04-19T13:15:10.569Z,27.05
2018-04-19T13:17:38.275Z,32.32
2018-04-19T13:20:05.894Z,31.97
2018-04-19T13:22:33.452Z,35.08
2018-04-19T13:25:01.048Z,34.87
2018-04-19T13:27:28.594Z,31.99
2018-04-19T13:29:56.161Z,31.28
2018-04-19T13:32:23.810Z,33.17
2018-04-19T13:34:51.617Z,33.70
2018-04-19T13:37:19.207Z,32.49
2018-04-19T13:39:46.782Z,33.19
2018-04-19T13:42:14.391Z,33.83
2018-04-19T13:44:41.966Z,29.50
2018-04-19T13:47:09.513Z,32.01
2018-04-19T13:49:37.149Z,31.95
2018-04-19T13:52:04.683Z,29.43
2018-04-19T13:54:32.268Z,28.86
2018-04-19T13:56:59.858Z,31.34
2018-04-19T13:59:27.429Z,29.20
2018-04-19T14:01:55.082Z,28.70
2018-04-19T14:04:22.620Z,32.40
2018-04-19T14:06:50.183Z,32.28
2018-04-19T14:09:17.782Z,29.51
2018-04-19T14:11:45.346Z,37.51
2018-04-19T14:14:12.945Z,36.58
2018-04-19T14:16:40.500Z,34.82
2018-04-19T14:19:08.054Z,34.00
2018-04-19T14:21:35.619Z,34.14
2018-04-19T14:24:03.201Z,36.60
2018-04-19T14:26:30.776Z,34.78
2018-04-19T14:28:58.322Z,34.00
2018-04-19T14:31:25.870Z,32.95
2018-04-19T14:33:53.456Z,34.54
2018-04-19T14:36:21.032Z,34.26
2018-04-19T14:38:48.590Z,34.19
2018-04-19T14:41:16.154Z,35.46
2018-04-19T14:43:43.720Z,35.58
2018-04-19T14:46:11.292Z,37.20
2018-04-19T14:48:38.867Z,36.18
2018-04-19T14:51:06.437Z,36.62
2018-04-19T14:53:34.040Z,34.88
2018-04-19T14:56:01.594Z,38.08
2018-04-19T14:58:29.157Z,40.75
2018-04-19T15:00:56.729Z,40.84
2018-04-19T15:03:24.655Z,41.36
2018-04-19T15:05:52.256Z,38.15
2018-04-19T15:08:20.011Z,38.24
2018-04-19T15:10:47.586Z,39.69
2018-04-19T15:13:15.221Z,39.31
2018-04-19T15:15:42.738Z,39.48
2018-04-19T15:18:10.295Z,40.44
2018-04-19T15:20:37.857Z,41.66
2018-04-19T15:23:05.417Z,41.77
2018-04-19T15:25:33.238Z,40.48
2018-04-19T15:28:00.804Z,42.06
2018-04-19T15:30:28.367Z,42.68
2018-04-19T15:32:55.938Z,42.62
2018-04-19T15:35:23.975Z,43.53
2018-04-19T15:37:51.539Z,44.56
2018-04-19T15:40:19.109Z,44.43
2018-04-19T15:42:46.684Z,44.67
2018-04-19T15:45:14.244Z,44.46
2018-04-19T15:47:41.796Z,45.48
2018-04-19T15:50:09.366Z,45.13
2018-04-19T15:52:36.916Z,46.09
2018-04-19T15:55:04.545Z,46.25
2018-04-19T15:57:32.090Z,46.70
2018-04-19T15:59:59.660Z,47.27
2018-04-19T16:02:27.279Z,47.21
2018-04-19T16:04:54.872Z,47.03
2018-04-19T16:07:22.482Z,46.88
2018-04-19T16:09:50.087Z,45.91
2018-04-19T16:12:17.639Z,46.22
2018-04-19T16:14:45.232Z,46.13
2018-04-19T16:17:12.832Z,45.05
2018-04-19T16:19:40.378Z,46.02
2018-04-19T16:22:07.940Z,45.13
2018-04-19T16:24:35.568Z,45.26
2018-04-19T16:27:03.647Z,46.08
2018-04-19T16:29:31.492Z,46.64
2018-04-19T16:31:59.049Z,45.33
2018-04-19T16:34:26.657Z,45.81
2018-04-19T16:36:54.206Z,45.73
2018-04-19T16:39:21.791Z,46.01
2018-04-19T16:41:49.362Z,46.96
2018-04-19T16:44:16.933Z,46.95
2018-04-19T16:46:44.493Z,46.55
2018-04-19T16:49:12.100Z,47.89
2018-04-19T16:51:39.680Z,47.39
2018-04-19T16:54:07.260Z,46.21
2018-04-19T16:56:35.030Z,46.61
2018-04-19T16:59:02.851Z,46.74
2018-04-19T17:01:30.415Z,46.94
2018-04-19T17:03:57.983Z,46.79
2018-04-19T17:06:25.650Z,47.35
2018-04-19T17:08:53.365Z,47.07
2018-04-19T17:11:20.949Z,48.19
2018-04-19T17:13:48.524Z,47.53
2018-04-19T17:16:16.133Z,47.41
2018-04-19T17:18:43.674Z,47.67
2018-04-19T17:21:11.228Z,47.80
2018-04-19T17:23:38.865Z,48.06
2018-04-19T17:26:06.622Z,48.15
2018-04-19T17:28:34.165Z,48.72
2018-04-19T17:31:01.888Z,48.86
2018-04-19T17:33:29.656Z,49.51
2018-04-19T17:35:57.215Z,50.66
2018-04-19T17:38:24.805Z,50.47
2018-04-19T17:40:52.391Z,49.96
2018-04-19T17:43:20.050Z,49.98
2018-04-19T17:45:47.605Z,50.20
2018-04-19T17:48:15.154Z,50.31
2018-04-19T17:50:42.988Z,49.87
2018-04-19T17:53:10.745Z,49.38
2018-04-19T17:55:38.305Z,49.42
2018-04-19T17:58:05.973Z,49.20
2018-04-19T18:00:33.690Z,49.44
2018-04-19T18:03:01.233Z,51.66
2018-04-19T18:05:28.822Z,50.18
2018-04-19T18:07:56.382Z,50.11
2018-04-19T18:10:23.962Z,50.55
2018-04-19T18:12:51.540Z,50.72
2018-04-19T18:15:19.101Z,51.81
2018-04-19T18:17:46.756Z,51.01
2018-04-19T18:20:14.810Z,54.90
2018-04-19T18:22:42.375Z,51.23
2018-04-19T18:25:10.312Z,52.08
2018-04-19T18:27:37.901Z,51.71
2018-04-19T18:30:05.485Z,51.78
2018-04-19T18:32:33.045Z,52.05
2018-04-19T18:35:00.824Z,52.37
2018-04-19T18:37:28.430Z,54.75
2018-04-19T18:39:56.009Z,57.10
2018-04-19T18:42:23.637Z,53.32
2018-04-19T18:44:51.233Z,52.62
2018-04-19T18:47:18.796Z,55.00
2018-04-19T18:49:46.414Z,53.63
2018-04-19T18:52:13.985Z,53.75
2018-04-19T18:54:41.553Z,54.10
2018-04-19T18:57:09.128Z,55.11
2018-04-19T18:59:36.694Z,54.92
2018-04-19T19:02:04.273Z,56.98
2018-04-19T19:04:31.864Z,57.24
2018-04-19T19:06:59.474Z,57.55
2018-04-19T19:09:27.128Z,56.50
2018-04-19T19:11:54.816Z,56.99
2018-04-19T19:14:22.399Z,57.55
2018-04-19T19:16:50.080Z,57.45
2018-04-19T19:19:36.679Z,57.96
2018-04-19T19:22:04.304Z,58.72
2018-04-19T19:24:32.181Z,59.40
2018-04-19T19:26:59.852Z,60.20
2018-04-19T19:29:27.721Z,60.75
2018-04-19T19:31:55.810Z,60.59
2018-04-19T19:34:23.875Z,61.66
2018-04-19T19:36:51.715Z,61.55
2018-04-19T19:39:19.342Z,62.98
2018-04-19T19:41:47.274Z,62.73
2018-04-19T19:44:15.222Z,62.98
2018-04-19T19:46:43.093Z,63.32
2018-04-19T19:49:10.698Z,63.60
2018-04-19T19:51:38.289Z,64.42
2018-04-19T19:54:05.863Z,64.46
2018-04-19T19:56:33.634Z,64.62
2018-04-19T19:59:01.219Z,64.98
2018-04-19T20:01:29.320Z,65.39
2018-04-19T20:03:58.002Z,66.19
2018-04-19T20:06:25.556Z,66.56
2018-04-19T20:08:53.146Z,67.06
2018-04-19T20:11:20.832Z,67.50
2018-04-19T20:19:40.341Z,68.42
2018-04-19T20:22:07.903Z,68.76
2018-04-19T20:24:35.479Z,69.12
2018-04-19T20:27:03.324Z,69.58
2018-04-19T20:29:30.976Z,69.73
2018-04-19T20:31:58.566Z,69.99
2018-04-19T20:34:26.148Z,70.29
2018-04-19T20:36:53.737Z,70.56
2018-04-19T20:39:21.377Z,70.92
2018-04-19T20:41:48.998Z,71.14
2018-04-19T20:44:16.596Z,71.09
2018-04-19T20:46:44.146Z,71.75
2018-04-19T20:49:11.721Z,71.63
2018-04-19T20:51:39.293Z,72.12
2018-04-19T20:54:06.851Z,72.03
2018-04-19T20:56:34.427Z,72.03
2018-04-19T20:59:01.993Z,72.80
2018-04-19T21:01:29.696Z,73.31
2018-04-19T21:03:57.280Z,73.94
2018-04-19T21:06:24.836Z,74.51
2018-04-19T21:08:52.442Z,74.40
2018-04-19T21:11:20.198Z,75.50
2018-04-19T21:13:47.785Z,75.32
2018-04-19T21:16:15.326Z,75.57
2018-04-19T21:18:42.890Z,75.61
2018-04-19T21:21:10.459Z,76.16
2018-04-19T21:23:38.070Z,76.35
2018-04-19T21:26:05.637Z,76.01
2018-04-19T21:28:33.208Z,76.70
2018-04-19T21:31:00.800Z,76.85
2018-04-19T21:33:28.376Z,77.44
2018-04-19T21:35:55.979Z,77.92
2018-04-19T21:38:23.549Z,78.12
2018-04-19T21:40:51.138Z,78.06
2018-04-19T21:43:18.704Z,78.14
2018-04-19T21:45:46.280Z,78.12
2018-04-19T21:48:13.823Z,78.34
2018-04-19T21:50:41.380Z,77.93
2018-04-19T21:53:08.952Z,78.41
2018-04-19T21:55:36.503Z,78.41
2018-04-19T21:58:04.054Z,78.47
2018-04-19T22:00:31.603Z,78.30
2018-04-19T22:02:59.181Z,78.50
2018-04-19T22:05:26.772Z,78.46
2018-04-19T22:07:54.335Z,78.13
2018-04-19T22:10:21.889Z,78.32
2018-04-19T22:12:49.457Z,78.58
2018-04-19T22:15:17.016Z,78.59
2018-04-19T22:17:44.589Z,78.84
2018-04-19T22:20:12.141Z,78.98
2018-04-19T22:22:39.693Z,78.75
2018-04-19T22:25:07.255Z,79.10
2018-04-19T22:27:34.876Z,78.95
2018-04-19T22:30:02.452Z,79.26
2018-04-19T22:32:30.026Z,79.41
2018-04-19T22:34:57.609Z,79.60
2018-04-19T22:37:25.180Z,79.69
2018-04-19T22:39:52.759Z,79.53
2018-04-19T22:42:20.293Z,79.91
2018-04-19T22:44:47.939Z,80.02
2018-04-19T22:47:15.488Z,80.15
2018-04-19T22:49:43.037Z,80.16
2018-04-19T22:52:10.611Z,79.54
2018-04-19T22:54:38.155Z,79.78
2018-04-19T22:57:05.708Z,78.86
2018-04-19T22:59:33.304Z,78.91
2018-04-19T23:02:00.838Z,78.98
2018-04-19T23:04:28.498Z,79.37
2018-04-19T23:06:56.080Z,79.15
2018-04-19T23:09:23.623Z,79.13
2018-04-19T23:11:51.195Z,78.98
2018-04-19T23:14:18.737Z,79.22
2018-04-19T23:16:46.293Z,78.56
2018-04-19T23:19:13.839Z,78.19
2018-04-19T23:21:41.412Z,78.43
2018-04-19T23:24:08.979Z,77.68
2018-04-19T23:26:36.532Z,77.53
2018-04-19T23:29:04.135Z,77.78
2018-04-19T23:31:31.706Z,77.63
2018-04-19T23:33:59.251Z,77.30
2018-04-19T23:36:26.836Z,77.14
2018-04-19T23:38:54.391Z,77.94
2018-04-19T23:41:21.971Z,77.11
2018-04-19T23:43:49.552Z,77.44
2018-04-19T23:46:17.120Z,77.70
2018-04-19T23:48:44.663Z,77.45
2018-04-19T23:51:12.221Z,76.79
2018-04-19T23:53:39.786Z,77.33
2018-04-19T23:56:07.342Z,77.31
2018-04-19T23:58:34.911Z,77.34
